Time;durP1;ratioP1;P1;durP2;ratioP2;P2;SDS_P1;SDS_P2;PMS_P1;PMS_P2;Temp;Humidity;BMP_temperature;BMP_pressure;BME280_temperature;BME280_humidity;BME280_pressure;Samples;Min_cycle;Max_cycle;Signal;HPM_P1;HPM_P2
2021/11/24 00:00:30;;;;;;;19.85;15.52;;;;;;;;;;4992853;28;20650;-80
2021/11/24 00:02:56;;;;;;;22.63;15.48;;;;;;;;;;4995267;28;20211;-80
2021/11/24 00:05:23;;;;;;;22.85;13.95;;;;;;;;;;4983489;28;20633;-80
2021/11/24 00:07:49;;;;;;;20.60;13.63;;;;;;;;;;4998574;28;20180;-80
2021/11/24 00:10:16;;;;;;;18.25;13.55;;;;;;;;;;5000918;28;20195;-80
2021/11/24 00:12:42;;;;;;;18.63;13.80;;;;;;;;;;5001851;28;20232;-80
2021/11/24 00:15:09;;;;;;;21.10;14.57;;;;;;;;;;4981725;28;20290;-80
2021/11/24 00:17:35;;;;;;;19.20;13.95;;;;;;;;;;4981667;28;20430;-80
2021/11/24 00:20:01;;;;;;;16.88;13.02;;;;;;;;;;4998832;28;20282;-80
2021/11/24 00:22:27;;;;;;;22.80;15.60;;;;;;;;;;5000086;28;20184;-80
2021/11/24 00:24:53;;;;;;;20.20;13.35;;;;;;;;;;4982987;28;20168;-80
2021/11/24 00:27:19;;;;;;;20.52;14.27;;;;;;;;;;4993664;28;20215;-80
2021/11/24 00:29:45;;;;;;;17.20;11.82;;;;;;;;;;4993615;28;20188;-80
2021/11/24 00:32:11;;;;;;;20.45;13.38;;;;;;;;;;4998006;28;20191;-80
2021/11/24 00:34:37;;;;;;;22.80;13.50;;;;;;;;;;4983758;28;20183;-80
2021/11/24 00:37:03;;;;;;;18.20;13.15;;;;;;;;;;4984248;28;20696;-80
2021/11/24 00:39:29;;;;;;;18.15;12.07;;;;;;;;;;4993153;28;20218;-80
2021/11/24 00:41:55;;;;;;;17.38;13.20;;;;;;;;;;4978739;28;20184;-80
2021/11/24 00:44:21;;;;;;;16.40;12.80;;;;;;;;;;4981226;28;20188;-80
2021/11/24 00:46:47;;;;;;;21.10;13.20;;;;;;;;;;4994014;28;20740;-80
2021/11/24 00:49:13;;;;;;;18.48;13.68;;;;;;;;;;4980034;28;20176;-80
2021/11/24 00:51:39;;;;;;;15.70;12.88;;;;;;;;;;4979569;28;20184;-80
2021/11/24 00:54:06;;;;;;;20.35;12.02;;;;;;;;;;4977880;28;20188;-80
2021/11/24 00:56:32;;;;;;;19.20;13.32;;;;;;;;;;4995024;28;20176;-80
2021/11/24 00:58:58;;;;;;;19.67;14.15;;;;;;;;;;4995795;28;20207;-80
2021/11/24 01:01:24;;;;;;;20.67;13.18;;;;;;;;;;4978365;28;20180;-80
2021/11/24 01:03:50;;;;;;;16.42;13.23;;;;;;;;;;4985807;28;20314;-80
2021/11/24 01:06:16;;;;;;;16.17;12.68;;;;;;;;;;4992572;28;20184;-80
2021/11/24 01:08:42;;;;;;;17.23;12.25;;;;;;;;;;4978131;28;20263;-80
2021/11/24 01:11:08;;;;;;;17.20;12.43;;;;;;;;;;4997373;28;20235;-80
2021/11/24 01:13:35;;;;;;;15.80;13.10;;;;;;;;;;4978442;28;20611;-80
2021/11/24 01:16:02;;;;;;;19.70;13.57;;;;;;;;;;4982495;28;20649;-80
2021/11/24 01:18:27;;;;;;;17.40;13.60;;;;;;;;;;4977805;28;20191;-80
2021/11/24 01:20:53;;;;;;;19.42;13.45;;;;;;;;;;4980659;28;20207;-80
2021/11/24 01:23:19;;;;;;;17.92;12.50;;;;;;;;;;4981496;28;20184;-80
2021/11/24 01:25:46;;;;;;;18.63;13.10;;;;;;;;;;4995500;28;20184;-80
2021/11/24 01:28:12;;;;;;;17.63;12.68;;;;;;;;;;4978943;28;20172;-80
2021/11/24 01:30:38;;;;;;;22.80;13.75;;;;;;;;;;4979163;28;20211;-80
2021/11/24 01:33:04;;;;;;;19.25;12.65;;;;;;;;;;4977590;28;20200;-80
2021/11/24 01:35:30;;;;;;;18.90;13.20;;;;;;;;;;4979920;28;20195;-80
2021/11/24 01:37:56;;;;;;;20.95;12.35;;;;;;;;;;4994652;28;20645;-80
2021/11/24 01:40:22;;;;;;;18.25;11.23;;;;;;;;;;4978140;28;20199;-80
2021/11/24 01:42:49;;;;;;;16.25;13.13;;;;;;;;;;4979186;28;20174;-80
2021/11/24 01:45:16;;;;;;;18.83;12.07;;;;;;;;;;4993245;28;20180;-80
2021/11/24 01:47:42;;;;;;;17.95;11.77;;;;;;;;;;4976168;28;20260;-80
2021/11/24 01:50:09;;;;;;;18.90;12.52;;;;;;;;;;4981657;28;20768;-80
2021/11/24 01:52:35;;;;;;;16.00;13.02;;;;;;;;;;4977553;28;20191;-80
2021/11/24 01:55:01;;;;;;;14.65;12.00;;;;;;;;;;4986305;28;20187;-80
2021/11/24 01:57:28;;;;;;;19.95;13.63;;;;;;;;;;4992952;28;20211;-80
2021/11/24 01:59:56;;;;;;;18.70;11.95;;;;;;;;;;4977440;28;20231;-80
2021/11/24 02:02:22;;;;;;;16.52;13.48;;;;;;;;;;4995337;28;20239;-80
2021/11/24 02:04:48;;;;;;;18.05;12.48;;;;;;;;;;4993760;28;20188;-80
2021/11/24 02:07:14;;;;;;;15.32;12.05;;;;;;;;;;4977436;28;20242;-80
2021/11/24 02:09:40;;;;;;;15.50;11.80;;;;;;;;;;4979030;28;20186;-80
2021/11/24 02:12:06;;;;;;;19.77;13.35;;;;;;;;;;4990332;28;20232;-80
2021/11/24 02:14:32;;;;;;;17.65;12.75;;;;;;;;;;4993784;28;20204;-80
2021/11/24 02:16:58;;;;;;;18.02;11.55;;;;;;;;;;4978960;28;20191;-80
2021/11/24 02:19:29;;;;;;;20.17;11.82;;;;;;;;;;4976991;28;20199;-80
2021/11/24 02:21:55;;;;;;;16.50;12.63;;;;;;;;;;4999449;28;20622;-80
2021/11/24 02:24:22;;;;;;;15.25;12.95;;;;;;;;;;4996596;28;20216;-80
2021/11/24 02:26:48;;;;;;;18.17;12.93;;;;;;;;;;4990916;28;20213;-80
2021/11/24 02:29:14;;;;;;;19.70;12.85;;;;;;;;;;4995524;28;20195;-80
2021/11/24 02:31:40;;;;;;;19.40;13.10;;;;;;;;;;4992594;28;20220;-80
2021/11/24 02:34:06;;;;;;;20.73;14.45;;;;;;;;;;4978331;28;20243;-80
2021/11/24 02:36:32;;;;;;;15.75;11.18;;;;;;;;;;4980106;28;20172;-80
2021/11/24 02:38:59;;;;;;;19.25;12.85;;;;;;;;;;4991427;28;20184;-80
2021/11/24 02:41:26;;;;;;;21.50;13.73;;;;;;;;;;4992874;28;20208;-80
2021/11/24 02:43:52;;;;;;;16.52;12.57;;;;;;;;;;4994316;28;20185;-80
2021/11/24 02:46:18;;;;;;;18.95;14.07;;;;;;;;;;4981355;28;20179;-80
2021/11/24 02:48:44;;;;;;;15.70;12.25;;;;;;;;;;4977098;28;20176;-80
2021/11/24 02:51:10;;;;;;;16.65;12.75;;;;;;;;;;4977661;28;20214;-80
2021/11/24 02:53:37;;;;;;;15.90;11.52;;;;;;;;;;4981020;28;20211;-80
2021/11/24 02:56:04;;;;;;;18.98;12.85;;;;;;;;;;4997369;28;20180;-80
2021/11/24 02:58:30;;;;;;;18.55;12.63;;;;;;;;;;4971817;28;20646;-80
2021/11/24 03:00:57;;;;;;;17.58;13.40;;;;;;;;;;4979207;28;20211;-80
2021/11/24 03:03:23;;;;;;;20.08;13.23;;;;;;;;;;4975930;28;20180;-81
2021/11/24 03:05:49;;;;;;;19.40;13.93;;;;;;;;;;4975554;28;20773;-80
2021/11/24 03:08:16;;;;;;;16.23;12.57;;;;;;;;;;4978808;28;20176;-81
2021/11/24 03:10:42;;;;;;;17.52;12.80;;;;;;;;;;4999876;28;20196;-80
2021/11/24 03:13:08;;;;;;;15.88;12.20;;;;;;;;;;4979865;28;20227;-80
2021/11/24 03:15:34;;;;;;;18.25;12.88;;;;;;;;;;4992070;28;20206;-80
2021/11/24 03:18:00;;;;;;;17.85;12.63;;;;;;;;;;4976466;28;20207;-80
2021/11/24 03:20:28;;;;;;;17.08;13.20;;;;;;;;;;4994421;28;20718;-80
2021/11/24 03:22:54;;;;;;;19.75;13.30;;;;;;;;;;4995655;28;20195;-80
2021/11/24 03:25:20;;;;;;;17.13;12.57;;;;;;;;;;4976416;28;20633;-80
2021/11/24 03:27:46;;;;;;;19.05;12.85;;;;;;;;;;4978391;28;20180;-80
2021/11/24 03:30:14;;;;;;;21.35;13.70;;;;;;;;;;4975193;28;20214;-80
2021/11/24 03:32:41;;;;;;;18.77;12.85;;;;;;;;;;4976964;28;20188;-81
2021/11/24 03:35:07;;;;;;;18.30;13.95;;;;;;;;;;4995222;28;20180;-80
2021/11/24 03:37:33;;;;;;;18.13;13.32;;;;;;;;;;4976047;28;20187;-80
2021/11/24 03:39:59;;;;;;;19.73;12.48;;;;;;;;;;4977209;28;20204;-80
2021/11/24 03:42:25;;;;;;;21.45;14.15;;;;;;;;;;4978705;28;20187;-80
2021/11/24 03:44:51;;;;;;;19.02;12.45;;;;;;;;;;4975634;28;20180;-80
2021/11/24 03:47:17;;;;;;;18.60;13.15;;;;;;;;;;4979861;28;20243;-80
2021/11/24 03:49:43;;;;;;;18.80;13.60;;;;;;;;;;4991241;28;20216;-80
2021/11/24 03:52:09;;;;;;;18.05;12.77;;;;;;;;;;4976094;28;20219;-80
2021/11/24 03:54:36;;;;;;;22.80;15.43;;;;;;;;;;4992837;28;20618;-80
2021/11/24 03:57:02;;;;;;;18.58;12.40;;;;;;;;;;4990397;28;20199;-80
2021/11/24 03:59:28;;;;;;;23.17;14.23;;;;;;;;;;4977804;28;20239;-80
2021/11/24 04:01:54;;;;;;;21.63;14.00;;;;;;;;;;4984240;28;20189;-80
2021/11/24 04:04:20;;;;;;;19.13;13.23;;;;;;;;;;4981575;28;20198;-79
2021/11/24 04:06:46;;;;;;;17.92;12.90;;;;;;;;;;4972874;28;20184;-80
2021/11/24 04:09:12;;;;;;;20.17;12.88;;;;;;;;;;4976801;28;20179;-80
2021/11/24 04:11:38;;;;;;;27.02;13.60;;;;;;;;;;4980072;28;20212;-80
2021/11/24 04:14:04;;;;;;;22.77;13.10;;;;;;;;;;4983229;28;20180;-80
2021/11/24 04:16:30;;;;;;;23.75;12.85;;;;;;;;;;4977879;28;20208;-80
2021/11/24 04:18:59;;;;;;;18.38;12.88;;;;;;;;;;5001965;28;20179;-80
2021/11/24 04:21:25;;;;;;;21.25;13.60;;;;;;;;;;4980441;28;20211;-80
2021/11/24 04:23:51;;;;;;;22.20;14.48;;;;;;;;;;4993562;28;20177;-80
2021/11/24 04:26:17;;;;;;;24.85;13.40;;;;;;;;;;4983340;28;20727;-80
2021/11/24 04:28:43;;;;;;;22.75;13.48;;;;;;;;;;4979986;28;20243;-80
2021/11/24 04:31:10;;;;;;;23.92;13.85;;;;;;;;;;4981538;28;20180;-80
2021/11/24 04:33:36;;;;;;;16.42;12.23;;;;;;;;;;4979821;28;20272;-80
2021/11/24 04:36:02;;;;;;;21.15;12.60;;;;;;;;;;4992961;28;20195;-80
2021/11/24 04:38:28;;;;;;;21.42;14.35;;;;;;;;;;4997618;28;20906;-80
2021/11/24 04:40:55;;;;;;;28.17;14.23;;;;;;;;;;4980996;28;20208;-80
2021/11/24 04:43:24;;;;;;;20.83;13.60;;;;;;;;;;4979314;28;20164;-80
2021/11/24 04:45:50;;;;;;;21.33;12.95;;;;;;;;;;5000279;28;20180;-80
2021/11/24 04:48:16;;;;;;;19.58;13.60;;;;;;;;;;4977088;28;20188;-80
2021/11/24 04:50:43;;;;;;;23.48;14.45;;;;;;;;;;4976985;28;20208;-80
2021/11/24 04:53:09;;;;;;;24.67;12.98;;;;;;;;;;4999391;28;20202;-80
2021/11/24 04:55:35;;;;;;;20.33;13.20;;;;;;;;;;4993795;28;20191;-80
2021/11/24 04:58:01;;;;;;;22.75;14.15;;;;;;;;;;4980461;28;20207;-80
2021/11/24 05:00:27;;;;;;;23.95;12.82;;;;;;;;;;4980788;28;20204;-80
2021/11/24 05:02:53;;;;;;;31.00;16.52;;;;;;;;;;4992619;28;20677;-80
2021/11/24 05:05:26;;;;;;;25.25;14.15;;;;;;;;;;4996511;28;20183;-80
2021/11/24 05:07:52;;;;;;;30.23;14.80;;;;;;;;;;4995405;28;20188;-80
2021/11/24 05:10:18;;;;;;;22.13;14.00;;;;;;;;;;4978785;28;20183;-80
2021/11/24 05:12:44;;;;;;;26.67;15.27;;;;;;;;;;4980485;28;20264;-79
2021/11/24 05:15:17;;;;;;;28.98;14.85;;;;;;;;;;4978111;28;20180;-80
2021/11/24 05:17:45;;;;;;;27.98;15.25;;;;;;;;;;4977838;28;20185;-80
2021/11/24 05:20:12;;;;;;;22.20;13.43;;;;;;;;;;4981509;28;20199;-80
2021/11/24 05:22:38;;;;;;;26.30;12.90;;;;;;;;;;4994694;28;20183;-80
2021/11/24 05:25:04;;;;;;;22.15;13.98;;;;;;;;;;4982287;28;20299;-80
2021/11/24 05:27:30;;;;;;;39.75;14.38;;;;;;;;;;4981003;28;20329;-79
2021/11/24 05:29:56;;;;;;;28.63;14.07;;;;;;;;;;4981140;28;20234;-79
2021/11/24 05:32:22;;;;;;;24.85;15.07;;;;;;;;;;4981338;28;20192;-80
2021/11/24 05:34:48;;;;;;;39.63;14.57;;;;;;;;;;4978933;28;20195;-79
2021/11/24 05:37:14;;;;;;;18.27;13.65;;;;;;;;;;4978313;28;20191;-80
2021/11/24 05:39:40;;;;;;;35.37;12.33;;;;;;;;;;4978808;28;20191;-80
2021/11/24 05:42:08;;;;;;;24.92;11.82;;;;;;;;;;4976995;28;20463;-79
2021/11/24 05:44:37;;;;;;;24.80;13.30;;;;;;;;;;4994195;28;20191;-80
2021/11/24 05:47:09;;;;;;;33.20;13.75;;;;;;;;;;4995444;28;20187;-79
2021/11/24 05:49:35;;;;;;;48.28;14.57;;;;;;;;;;4977336;28;20204;-80
2021/11/24 05:52:01;;;;;;;24.58;13.55;;;;;;;;;;5000525;28;20250;-79
2021/11/24 05:54:27;;;;;;;26.92;13.38;;;;;;;;;;4992107;28;20191;-79
2021/11/24 05:56:53;;;;;;;32.60;13.23;;;;;;;;;;4975578;28;20180;-80
2021/11/24 05:59:20;;;;;;;28.13;13.95;;;;;;;;;;4995443;28;20605;-79
2021/11/24 06:01:46;;;;;;;32.42;13.48;;;;;;;;;;4997349;28;20231;-80
2021/11/24 06:04:12;;;;;;;44.00;12.55;;;;;;;;;;4979412;28;20215;-80
2021/11/24 06:06:38;;;;;;;32.50;13.43;;;;;;;;;;4984577;28;20178;-80
2021/11/24 06:09:05;;;;;;;38.13;13.65;;;;;;;;;;4989523;28;20281;-80
2021/11/24 06:11:31;;;;;;;24.02;12.63;;;;;;;;;;4986422;28;20662;-80
2021/11/24 06:13:58;;;;;;;23.17;11.75;;;;;;;;;;4982396;28;20202;-80
2021/11/24 06:16:24;;;;;;;27.48;13.52;;;;;;;;;;4982057;28;20190;-80
2021/11/24 06:18:50;;;;;;;38.30;14.40;;;;;;;;;;4978468;28;20218;-80
2021/11/24 06:21:21;;;;;;;29.23;14.27;;;;;;;;;;4975890;28;20294;-80
2021/11/24 06:23:48;;;;;;;23.40;12.68;;;;;;;;;;4991463;28;20192;-80
2021/11/24 06:26:15;;;;;;;21.67;12.15;;;;;;;;;;4981699;28;20187;-80
2021/11/24 06:28:43;;;;;;;22.10;11.63;;;;;;;;;;4981482;28;20192;-79
2021/11/24 06:31:09;;;;;;;33.05;12.98;;;;;;;;;;4983689;28;20224;-79
2021/11/24 06:33:36;;;;;;;31.02;13.43;;;;;;;;;;4992988;28;20180;-79
2021/11/24 06:36:02;;;;;;;23.13;11.95;;;;;;;;;;4994297;28;20196;-79
2021/11/24 06:38:27;;;;;;;29.20;12.57;;;;;;;;;;4980648;28;20202;-79
2021/11/24 06:40:53;;;;;;;26.00;12.45;;;;;;;;;;4990480;28;20212;-79
2021/11/24 06:43:20;;;;;;;20.58;12.10;;;;;;;;;;4978641;28;20176;-80
2021/11/24 06:45:46;;;;;;;29.60;13.23;;;;;;;;;;4978334;28;20779;-79
2021/11/24 06:48:12;;;;;;;26.13;12.30;;;;;;;;;;4995559;28;20172;-79
2021/11/24 06:50:38;;;;;;;21.33;11.30;;;;;;;;;;4979001;28;20197;-79
2021/11/24 06:53:04;;;;;;;21.58;12.55;;;;;;;;;;4979241;28;20621;-79
2021/11/24 06:55:30;;;;;;;28.67;12.65;;;;;;;;;;4986693;28;20638;-79
2021/11/24 06:57:56;;;;;;;29.98;14.00;;;;;;;;;;4998564;28;20256;-79
2021/11/24 07:00:24;;;;;;;24.58;11.77;;;;;;;;;;4979450;28;20212;-79
2021/11/24 07:02:50;;;;;;;25.83;12.68;;;;;;;;;;4974802;28;20251;-79
2021/11/24 07:05:16;;;;;;;33.38;12.23;;;;;;;;;;4979176;28;20526;-79
2021/11/24 07:07:42;;;;;;;27.27;11.80;;;;;;;;;;4977392;28;20275;-79
2021/11/24 07:10:08;;;;;;;48.80;13.32;;;;;;;;;;4979213;28;20299;-79
2021/11/24 07:12:34;;;;;;;25.33;12.32;;;;;;;;;;4992276;28;20642;-79
2021/11/24 07:15:00;;;;;;;32.90;12.02;;;;;;;;;;4975097;28;20193;-79
2021/11/24 07:17:26;;;;;;;37.08;13.23;;;;;;;;;;4979614;28;20188;-79
2021/11/24 07:19:53;;;;;;;32.05;12.48;;;;;;;;;;4981382;28;20270;-79
2021/11/24 07:22:19;;;;;;;21.52;10.60;;;;;;;;;;4987659;28;20527;-79
2021/11/24 07:24:45;;;;;;;21.25;11.05;;;;;;;;;;4982942;28;20176;-79
2021/11/24 07:27:11;;;;;;;26.73;13.10;;;;;;;;;;4994805;28;20234;-79
2021/11/24 07:29:37;;;;;;;24.90;10.82;;;;;;;;;;4980233;28;20187;-80
2021/11/24 07:32:04;;;;;;;24.52;10.65;;;;;;;;;;4980731;28;20211;-80
2021/11/24 07:34:30;;;;;;;29.20;11.07;;;;;;;;;;4981322;28;20196;-80
2021/11/24 07:36:56;;;;;;;27.02;11.98;;;;;;;;;;4986451;28;20247;-80
2021/11/24 07:39:22;;;;;;;22.27;10.95;;;;;;;;;;4993327;28;20203;-80
2021/11/24 07:41:48;;;;;;;27.80;11.57;;;;;;;;;;4998508;28;20188;-80
2021/11/24 07:44:15;;;;;;;27.90;10.95;;;;;;;;;;4979417;28;20180;-80
2021/11/24 07:46:41;;;;;;;20.10;11.32;;;;;;;;;;4979002;28;20218;-80
2021/11/24 07:49:07;;;;;;;30.23;12.43;;;;;;;;;;4999849;28;20180;-81
2021/11/24 07:51:33;;;;;;;20.27;10.85;;;;;;;;;;4980708;28;20187;-80
2021/11/24 07:53:59;;;;;;;18.85;10.73;;;;;;;;;;4991198;28;20696;-80
2021/11/24 07:56:25;;;;;;;20.25;11.82;;;;;;;;;;4999230;28;20191;-81
2021/11/24 07:58:51;;;;;;;19.08;11.18;;;;;;;;;;4983177;28;20188;-79
2021/11/24 08:01:17;;;;;;;19.75;11.05;;;;;;;;;;4985315;28;20574;-80
2021/11/24 08:03:43;;;;;;;20.90;11.05;;;;;;;;;;4978762;28;20180;-80
2021/11/24 08:06:09;;;;;;;21.25;11.13;;;;;;;;;;4991707;28;20184;-81
2021/11/24 08:08:35;;;;;;;27.08;12.40;;;;;;;;;;4994337;28;20165;-81
2021/11/24 08:11:02;;;;;;;19.30;11.40;;;;;;;;;;4989496;28;20198;-81
2021/11/24 08:13:28;;;;;;;24.98;11.40;;;;;;;;;;4982730;28;20222;-80
2021/11/24 08:15:54;;;;;;;26.85;12.10;;;;;;;;;;4983477;28;20688;-80
2021/11/24 08:18:20;;;;;;;21.85;12.10;;;;;;;;;;4993584;28;20192;-79
2021/11/24 08:20:47;;;;;;;23.08;11.77;;;;;;;;;;4982458;28;20211;-80
2021/11/24 08:23:13;;;;;;;20.50;11.27;;;;;;;;;;4982182;28;20187;-79
2021/11/24 08:25:39;;;;;;;19.92;10.88;;;;;;;;;;4979901;28;20188;-79
2021/11/24 08:28:05;;;;;;;27.80;12.77;;;;;;;;;;4982660;28;20684;-80
2021/11/24 08:30:31;;;;;;;23.17;12.30;;;;;;;;;;4994098;28;20180;-80
2021/11/24 08:32:57;;;;;;;22.90;12.63;;;;;;;;;;4993816;28;20650;-79
2021/11/24 08:35:24;;;;;;;23.15;12.23;;;;;;;;;;4997876;28;20184;-79
2021/11/24 08:37:50;;;;;;;23.75;11.90;;;;;;;;;;4979555;28;20188;-80
2021/11/24 08:40:16;;;;;;;23.30;12.18;;;;;;;;;;4978698;28;20207;-80
2021/11/24 08:42:42;;;;;;;20.90;11.55;;;;;;;;;;4978962;28;20231;-80
2021/11/24 08:45:10;;;;;;;19.58;11.75;;;;;;;;;;4977011;28;20586;-80
2021/11/24 08:47:36;;;;;;;23.63;12.40;;;;;;;;;;4978666;28;20177;-80
2021/11/24 08:50:02;;;;;;;24.85;12.80;;;;;;;;;;4997049;28;20211;-80
2021/11/24 08:52:28;;;;;;;23.58;13.82;;;;;;;;;;4977406;28;20228;-81
2021/11/24 08:54:54;;;;;;;25.27;14.50;;;;;;;;;;4999726;28;20356;-80
2021/11/24 08:57:22;;;;;;;23.67;14.35;;;;;;;;;;4978085;28;20732;-80
2021/11/24 08:59:48;;;;;;;29.45;14.70;;;;;;;;;;4980700;28;20226;-80
2021/11/24 09:02:14;;;;;;;29.52;16.88;;;;;;;;;;4980831;28;20250;-82
2021/11/24 09:04:40;;;;;;;33.20;17.43;;;;;;;;;;4978824;28;20642;-80
2021/11/24 09:07:07;;;;;;;29.52;15.63;;;;;;;;;;4980145;28;20447;-79
2021/11/24 09:09:34;;;;;;;25.48;15.13;;;;;;;;;;4978261;28;20178;-79
2021/11/24 09:12:01;;;;;;;29.25;15.20;;;;;;;;;;4977072;28;20212;-79
2021/11/24 09:14:27;;;;;;;31.63;15.18;;;;;;;;;;4997155;28;20250;-80
2021/11/24 09:16:53;;;;;;;28.30;14.88;;;;;;;;;;4983741;28;20183;-80
2021/11/24 09:19:19;;;;;;;25.75;15.05;;;;;;;;;;4978971;28;20183;-79
2021/11/24 09:21:45;;;;;;;29.50;17.13;;;;;;;;;;4978699;28;20184;-80
2021/11/24 09:24:13;;;;;;;27.52;14.60;;;;;;;;;;4998352;28;20184;-79
2021/11/24 09:26:42;;;;;;;26.80;15.27;;;;;;;;;;4993445;28;20180;-81
2021/11/24 09:29:08;;;;;;;24.30;14.50;;;;;;;;;;4982026;28;20179;-80
2021/11/24 09:31:34;;;;;;;22.17;14.45;;;;;;;;;;4977834;28;20255;-80
2021/11/24 09:34:00;;;;;;;23.95;13.93;;;;;;;;;;5001301;28;20211;-80
2021/11/24 09:36:27;;;;;;;26.38;14.77;;;;;;;;;;4992531;28;20203;-80
2021/11/24 09:38:53;;;;;;;32.35;17.85;;;;;;;;;;4993985;28;20357;-83
2021/11/24 09:41:22;;;;;;;27.88;14.95;;;;;;;;;;4979291;28;20222;-80
2021/11/24 09:43:49;;;;;;;26.67;15.60;;;;;;;;;;4996319;28;20286;-80
2021/11/24 09:46:16;;;;;;;30.20;14.95;;;;;;;;;;4977660;28;20175;-79
2021/11/24 09:48:43;;;;;;;29.73;17.48;;;;;;;;;;4979792;28;20187;-81
2021/11/24 09:51:09;;;;;;;27.95;14.77;;;;;;;;;;4975607;28;20357;-80
2021/11/24 09:53:36;;;;;;;27.52;15.32;;;;;;;;;;4993790;28;20196;-81
2021/11/24 09:56:02;;;;;;;28.23;16.55;;;;;;;;;;4994872;28;20187;-80
2021/11/24 09:58:28;;;;;;;25.20;15.95;;;;;;;;;;4978119;28;20187;-80
2021/11/24 10:00:54;;;;;;;25.63;15.98;;;;;;;;;;4980550;28;20235;-81
2021/11/24 10:03:20;;;;;;;27.77;17.58;;;;;;;;;;4976413;28;20191;-81
2021/11/24 10:05:47;;;;;;;28.83;17.80;;;;;;;;;;4982070;28;20440;-80
2021/11/24 10:08:14;;;;;;;28.40;15.68;;;;;;;;;;4995249;28;20184;-80
2021/11/24 10:10:40;;;;;;;27.88;16.50;;;;;;;;;;4991620;28;20190;-80
2021/11/24 10:13:06;;;;;;;26.58;15.00;;;;;;;;;;4979365;28;20224;-80
2021/11/24 10:15:45;;;;;;;23.77;14.95;;;;;;;;;;4976322;28;20218;-81
2021/11/24 10:18:11;;;;;;;29.27;15.25;;;;;;;;;;4991460;28;20636;-81
2021/11/24 10:20:56;;;;;;;26.27;16.02;;;;;;;;;;4993333;28;20688;-80
2021/11/24 10:23:24;;;;;;;23.52;14.05;;;;;;;;;;4985000;28;20191;-80
2021/11/24 10:25:50;;;;;;;24.65;15.65;;;;;;;;;;4992265;28;20324;-80
2021/11/24 10:28:31;;;;;;;20.83;13.32;;;;;;;;;;4979673;28;20199;-80
2021/11/24 10:30:58;;;;;;;21.20;14.75;;;;;;;;;;4994327;28;20175;-80
2021/11/24 10:33:30;;;;;;;21.23;13.02;;;;;;;;;;4998445;28;20591;-79
2021/11/24 10:36:03;;;;;;;20.60;13.20;;;;;;;;;;4975690;28;20712;-80
2021/11/24 10:38:38;;;;;;;19.30;13.55;;;;;;;;;;4978240;28;22663;-80
2021/11/24 10:41:04;;;;;;;19.17;12.93;;;;;;;;;;4995249;28;20203;-80
2021/11/24 10:43:40;;;;;;;18.13;12.65;;;;;;;;;;4981787;28;20210;-81
2021/11/24 10:46:06;;;;;;;19.98;12.43;;;;;;;;;;4981165;28;20172;-80
2021/11/24 10:48:32;;;;;;;18.60;12.18;;;;;;;;;;4978002;28;20236;-81
2021/11/24 10:51:01;;;;;;;15.88;9.95;;;;;;;;;;4980782;28;20196;-81
2021/11/24 10:53:27;;;;;;;17.23;10.48;;;;;;;;;;4993254;28;20259;-81
2021/11/24 10:55:53;;;;;;;12.80;10.23;;;;;;;;;;4993538;28;20192;-81
2021/11/24 10:58:25;;;;;;;18.20;10.95;;;;;;;;;;4981493;28;20187;-81
2021/11/24 11:00:52;;;;;;;13.82;10.65;;;;;;;;;;4995937;28;20349;-80
2021/11/24 11:03:21;;;;;;;15.82;10.88;;;;;;;;;;4990612;28;20184;-80
2021/11/24 11:05:52;;;;;;;21.33;12.07;;;;;;;;;;4976089;28;20186;-82
2021/11/24 11:08:18;;;;;;;13.15;9.80;;;;;;;;;;4969625;28;20215;-81
2021/11/24 11:10:49;;;;;;;17.23;13.02;;;;;;;;;;4991900;28;20188;-82
2021/11/24 11:13:20;;;;;;;14.20;8.38;;;;;;;;;;4979146;28;20216;-81
2021/11/24 11:15:54;;;;;;;14.50;10.48;;;;;;;;;;4979766;28;20179;-81
2021/11/24 11:18:26;;;;;;;13.75;10.02;;;;;;;;;;4976322;28;20187;-81
2021/11/24 11:20:54;;;;;;;13.35;10.50;;;;;;;;;;4977406;28;20267;-81
2021/11/24 11:23:23;;;;;;;16.25;11.75;;;;;;;;;;5000339;28;20191;-81
2021/11/24 11:25:50;;;;;;;14.63;9.80;;;;;;;;;;4991988;28;20180;-81
2021/11/24 11:28:17;;;;;;;15.73;10.70;;;;;;;;;;4982267;28;20180;-80
2021/11/24 11:30:45;;;;;;;13.00;10.00;;;;;;;;;;4978416;28;20203;-78
2021/11/24 11:33:13;;;;;;;13.27;10.23;;;;;;;;;;4978866;28;20187;-81
2021/11/24 11:35:39;;;;;;;13.25;9.93;;;;;;;;;;4977034;28;20188;-80
2021/11/24 11:38:05;;;;;;;14.93;9.98;;;;;;;;;;4979217;28;20242;-81
2021/11/24 11:40:34;;;;;;;13.57;9.82;;;;;;;;;;4978798;28;20204;-82
2021/11/24 11:43:01;;;;;;;11.02;9.60;;;;;;;;;;4993990;28;20176;-82
2021/11/24 11:45:29;;;;;;;12.75;9.73;;;;;;;;;;4974855;28;20183;-83
2021/11/24 11:47:57;;;;;;;14.88;9.90;;;;;;;;;;4992285;28;20189;-81
2021/11/24 11:50:38;;;;;;;14.68;8.90;;;;;;;;;;4977775;28;20180;-82
2021/11/24 11:53:23;;;;;;;11.63;8.57;;;;;;;;;;4978329;28;20188;-81
2021/11/24 11:56:09;;;;;;;11.38;8.82;;;;;;;;;;4992815;28;20188;-82
2021/11/24 11:58:45;;;;;;;11.00;9.10;;;;;;;;;;4974998;28;20211;-80
2021/11/24 12:01:12;;;;;;;13.73;9.95;;;;;;;;;;4994926;28;20234;-81
2021/11/24 12:04:04;;;;;;;12.63;9.85;;;;;;;;;;4976625;28;20180;-83
2021/11/24 12:06:49;;;;;;;11.45;9.07;;;;;;;;;;4980896;28;20195;-82
2021/11/24 12:09:19;;;;;;;13.75;9.60;;;;;;;;;;4975099;28;20179;-82
2021/11/24 12:12:01;;;;;;;11.13;9.13;;;;;;;;;;4990707;28;20638;-81
2021/11/24 12:14:45;;;;;;;13.65;9.70;;;;;;;;;;4979505;28;20214;-82
2021/11/24 12:19:56;;;;;;;13.18;9.48;;;;;;;;;;4978160;28;20216;-81
2021/11/24 12:22:41;;;;;;;13.52;10.10;;;;;;;;;;4977548;28;20188;-81
2021/11/24 12:25:07;;;;;;;13.52;9.07;;;;;;;;;;4998893;28;20171;-81
2021/11/24 12:27:52;;;;;;;10.95;9.02;;;;;;;;;;4993748;28;20187;-80
2021/11/24 12:33:02;;;;;;;18.00;9.00;;;;;;;;;;4973931;28;20428;-82
2021/11/24 12:35:28;;;;;;;10.17;8.40;;;;;;;;;;4996742;28;20602;-82
2021/11/24 12:37:58;;;;;;;11.65;9.15;;;;;;;;;;4983909;28;20443;-82
2021/11/24 12:40:28;;;;;;;13.43;9.13;;;;;;;;;;4983910;28;20239;-84
2021/11/24 12:42:58;;;;;;;9.57;7.07;;;;;;;;;;4985746;28;20207;-82
2021/11/24 12:45:24;;;;;;;12.60;9.23;;;;;;;;;;4992759;28;20206;-80
2021/11/24 12:48:00;;;;;;;11.63;7.78;;;;;;;;;;5000107;28;20521;-81
2021/11/24 12:50:27;;;;;;;12.02;8.75;;;;;;;;;;4980405;28;20183;-80
2021/11/24 12:53:00;;;;;;;12.40;8.95;;;;;;;;;;4980387;28;20219;-81
2021/11/24 12:55:27;;;;;;;10.10;7.40;;;;;;;;;;4983300;28;20184;-82
2021/11/24 12:57:54;;;;;;;10.23;8.02;;;;;;;;;;4985454;28;20499;-82
2021/11/24 13:00:27;;;;;;;12.20;8.50;;;;;;;;;;4997105;28;20225;-82
2021/11/24 13:02:53;;;;;;;11.05;7.45;;;;;;;;;;4977113;28;20195;-82
2021/11/24 13:05:19;;;;;;;7.50;6.80;;;;;;;;;;4982699;28;20184;-82
2021/11/24 13:07:52;;;;;;;9.52;6.78;;;;;;;;;;4983077;28;20335;-82
2021/11/24 13:10:19;;;;;;;11.27;7.03;;;;;;;;;;4978900;28;20184;-80
2021/11/24 13:12:45;;;;;;;10.32;7.90;;;;;;;;;;4994068;28;20234;-81
2021/11/24 13:15:12;;;;;;;10.70;7.75;;;;;;;;;;4978007;28;20274;-82
2021/11/24 13:17:42;;;;;;;10.73;8.15;;;;;;;;;;4993731;28;20198;-82
2021/11/24 13:20:09;;;;;;;12.60;8.13;;;;;;;;;;4996625;28;20208;-82
2021/11/24 13:22:41;;;;;;;14.13;8.88;;;;;;;;;;4994012;28;20184;-82
2021/11/24 13:25:08;;;;;;;12.32;8.13;;;;;;;;;;5014159;28;20203;-81
2021/11/24 13:27:41;;;;;;;8.38;7.20;;;;;;;;;;4996900;28;20176;-82
2021/11/24 13:30:08;;;;;;;11.77;8.48;;;;;;;;;;4993249;28;20320;-81
2021/11/24 13:32:34;;;;;;;11.07;8.02;;;;;;;;;;4995601;28;20188;-84
2021/11/24 13:35:00;;;;;;;10.30;7.33;;;;;;;;;;4997602;28;20202;-83
2021/11/24 13:37:27;;;;;;;8.95;7.13;;;;;;;;;;4977105;28;20497;-81
2021/11/24 13:39:57;;;;;;;8.43;6.10;;;;;;;;;;4999951;28;20212;-81
2021/11/24 13:42:24;;;;;;;9.18;6.60;;;;;;;;;;4992361;28;20203;-83
2021/11/24 13:44:51;;;;;;;10.15;6.93;;;;;;;;;;4981172;28;20176;-81
2021/11/24 13:47:27;;;;;;;9.85;6.97;;;;;;;;;;4979369;28;20184;-81
2021/11/24 13:49:54;;;;;;;12.32;7.50;;;;;;;;;;4979391;28;20180;-81
2021/11/24 13:52:21;;;;;;;7.97;6.30;;;;;;;;;;4977364;28;20216;-81
2021/11/24 13:54:55;;;;;;;9.38;6.70;;;;;;;;;;4993750;28;20176;-82
2021/11/24 13:57:22;;;;;;;9.15;6.68;;;;;;;;;;4977139;28;20186;-82
2021/11/24 13:59:51;;;;;;;7.63;4.97;;;;;;;;;;4982167;28;20242;-83
2021/11/24 14:02:21;;;;;;;9.10;6.72;;;;;;;;;;4979456;28;20653;-82
2021/11/24 14:04:48;;;;;;;11.18;6.38;;;;;;;;;;4978356;28;20204;-82
2021/11/24 14:07:15;;;;;;;10.80;8.55;;;;;;;;;;4978553;28;20187;-82
2021/11/24 14:09:44;;;;;;;7.93;5.65;;;;;;;;;;4994452;28;20630;-82
2021/11/24 14:12:43;;;;;;;10.82;6.10;;;;;;;;;;4983171;28;20231;-82
2021/11/24 14:15:09;;;;;;;6.60;4.88;;;;;;;;;;4983065;28;20192;-82
2021/11/24 14:17:43;;;;;;;6.25;5.60;;;;;;;;;;4984040;28;20187;-81
2021/11/24 14:20:09;;;;;;;7.75;5.75;;;;;;;;;;4995890;28;20848;-82
2021/11/24 14:22:40;;;;;;;8.63;5.85;;;;;;;;;;4979628;28;20206;-81
2021/11/24 14:25:07;;;;;;;7.95;5.32;;;;;;;;;;4983008;28;20192;-81
2021/11/24 14:27:33;;;;;;;9.20;6.05;;;;;;;;;;4980045;28;20194;-82